Latest Coastal Weather Observations for Rowley Shoals

IDW60701

Issued at 12:02 am WST Wednesday 1 June 2016 (issued every 10 minutes, with the page automatically refreshed every 10 minutes)

About coastal observations | Map of coastal stations | Coastal observations for WA | Marine services | Other Formats
Station Details ID: 200713 Name: ROWLEY SHOALS Lat: -17.52 Lon: 118.95 Height: 0.0 m
Data from the previous 72 hours. | See also: Recent months at Rowley Shoals
Date/Time
WST
Temp

°C
Wind Pressure Rain
since 9am
mm
Weather Cloud Vis
km
Sea
Height
m
Swell
Dir
 
Speed
knots
Gust
knots
hPa Trend Height
m
Period
s
Dir
01/12:00am 27.2 WSW 3 4 1014.5 - - - - - - - - -
 
Date/Time
WST
Temp

°C
Wind Pressure Rain
since 9am
mm
Weather Cloud Vis
km
Sea
Height
m
Swell
Dir
 
Speed
knots
Gust
knots
hPa Trend Height
m
Period
s
Dir
31/11:30pm 27.2 SW 3 5 1014.5 - - - - - - - - -
31/11:00pm 27.3 WSW 4 6 1014.7 - - - - - - - - -
31/10:30pm 27.2 CALM 0 0 1014.9 - - - - - - - - -
31/10:00pm 27.3 W 3 4 1015.0 - - - - - - - - -
31/09:30pm 27.3 CALM 0 3 1014.8 - - - - - - - - -
31/09:00pm 27.4 CALM 0 0 1014.8 - - - - - - - - -
31/08:30pm 27.4 SSW 2 5 1014.5 - - - - - - - - -
31/08:00pm 27.4 SSW 3 5 1014.6 - - - - - - - - -
31/07:30pm 27.4 SSW 3 5 1014.4 - - - - - - - - -
31/07:00pm 27.5 SSW 4 6 1014.1 - - - - - - - - -
31/06:30pm 27.5 S 1 6 1013.6 - - - - - - - - -
31/06:00pm 27.5 SSW 2 5 1013.5 - - - - - - - - -
31/05:30pm 27.6 WSW 3 4 1013.2 - - - - - - - - -
31/05:00pm 27.7 SSW 3 6 1012.9 - - - - - - - - -
31/04:30pm 27.9 WSW 4 6 1012.8 - - - - - - - - -
31/04:00pm 27.9 WSW 5 6 1012.6 - - - - - - - - -
31/03:30pm 27.9 W 5 6 1012.4 - - - - - - - - -
31/03:00pm 27.8 WSW 4 6 1012.4 - - - - - - - - -
31/02:30pm 27.7 WSW 5 7 1012.4 - - - - - - - - -
31/02:00pm 27.8 SW 5 8 1012.3 - - - - - - - - -
31/01:30pm 27.5 SW 6 7 1012.4 - - - - - - - - -
31/01:00pm 27.9 WSW 4 6 1012.6 - - - - - - - - -
31/12:30pm 27.9 WSW 3 6 1013.1 - - - - - - - - -
31/12:00pm 27.8 WSW 4 5 1013.6 - - - - - - - - -
31/11:30am 27.8 SW 4 5 1013.9 - - - - - - - - -
31/11:00am 28.1 SW 4 5 1014.1 - - - - - - - - -
31/10:30am 27.6 WSW 4 5 1014.6 - - - - - - - - -
31/10:00am 27.8 SW 4 5 1014.7 - - - - - - - - -
31/09:30am 27.7 SSW 3 5 1014.9 - - - - - - - - -
31/09:00am 27.7 SW 3 6 1014.8 - - - - - - - - -
31/08:30am 27.4 W 3 4 1014.6 - - - - - - - - -
31/08:00am 27.4 SW 3 5 1014.3 - - - - - - - - -
31/07:30am 27.2 WSW 3 5 1014.1 - - - - - - - - -
31/07:00am 27.2 W 1 3 1013.9 - - - - - - - - -
31/06:30am 27.1 W 2 3 1013.6 - - - - - - - - -
31/06:00am 27.1 WNW 3 5 1013.3 - - - - - - - - -
31/05:30am 27.1 WNW 3 4 1013.0 - - - - - - - - -
31/05:00am 27.1 WNW 4 6 1012.8 - - - - - - - - -
31/04:30am 27.2 WSW 5 7 1012.9 - - - - - - - - -
31/04:00am 27.2 W 6 7 1012.8 - - - - - - - - -
31/03:30am 27.2 W 5 7 1012.7 - - - - - - - - -
31/03:00am 27.2 WNW 5 7 1012.9 - - - - - - - - -
31/02:30am 27.2 W 4 6 1013.0 - - - - - - - - -
31/02:00am 27.3 W 4 7 1013.2 - - - - - - - - -
31/01:30am 27.3 W 4 5 1013.5 - - - - - - - - -
31/01:00am 27.2 WSW 5 7 1013.6 - - - - - - - - -
31/12:30am 27.4 WSW 5 6 1013.7 - - - - - - - - -
31/12:00am 27.3 WSW 4 6 1013.7 - - - - - - - - -
 
Date/Time
WST
Temp

°C
Wind Pressure Rain
since 9am
mm
Weather Cloud Vis
km
Sea
Height
m
Swell
Dir
 
Speed
knots
Gust
knots
hPa Trend Height
m
Period
s
Dir
30/11:30pm 27.3 WSW 4 6 1013.5 - - - - - - - - -
30/11:00pm 27.4 W 7 8 1013.9 - - - - - - - - -
30/10:30pm 27.5 WSW 6 7 1013.9 - - - - - - - - -
30/10:00pm 27.5 W 4 6 1013.9 - - - - - - - - -
30/09:30pm 27.4 W 5 6 1013.8 - - - - - - - - -
30/09:00pm 27.5 W 6 8 1013.6 - - - - - - - - -
30/08:30pm 27.4 WSW 6 8 1013.8 - - - - - - - - -
30/08:00pm 27.4 WSW 5 7 1013.5 - - - - - - - - -
30/07:30pm 27.5 SW 6 8 1013.3 - - - - - - - - -
30/07:00pm 27.4 WSW 9 10 1013.3 - - - - - - - - -
30/06:30pm 27.4 WSW 8 10 1012.8 - - - - - - - - -
30/06:00pm 27.5 W 6 8 1012.6 - - - - - - - - -
30/05:30pm 27.5 WNW 5 8 1012.2 - - - - - - - - -
30/05:00pm 27.6 WNW 5 7 1012.1 - - - - - - - - -
30/04:30pm 27.8 W 5 7 1011.6 - - - - - - - - -
30/04:00pm 27.8 W 5 7 1011.6 - - - - - - - - -
30/03:30pm 27.6 WSW 6 9 1011.5 - - - - - - - - -
30/03:00pm 27.7 WSW 5 7 1011.4 - - - - - - - - -
30/02:30pm 27.5 WNW 5 7 1011.4 - - - - - - - - -
30/02:00pm 27.5 WNW 4 5 1011.4 - - - - - - - - -
30/01:30pm 27.5 WNW 5 7 1011.4 - - - - - - - - -
30/01:00pm 27.5 W 5 7 1011.6 - - - - - - - - -
30/12:30pm 27.7 W 4 6 1012.1 - - - - - - - - -
30/12:00pm 27.6 W 4 5 1012.4 - - - - - - - - -
30/11:30am 27.6 WSW 4 5 1012.5 - - - - - - - - -
30/11:00am 27.6 WSW 5 7 1012.7 - - - - - - - - -
30/10:30am 27.5 WSW 4 6 1013.1 - - - - - - - - -
30/10:00am 27.5 SW 4 6 1013.4 - - - - - - - - -
30/09:30am 27.5 W 4 6 1013.7 - - - - - - - - -
30/09:00am 27.3 WSW 4 5 1013.7 - - - - - - - - -
30/08:30am 27.3 W 5 7 1013.6 - - - - - - - - -
30/08:00am 27.2 W 5 6 1013.4 - - - - - - - - -
30/07:30am 27.0 WSW 5 6 1013.1 - - - - - - - - -
30/07:00am 27.0 W 5 8 1012.8 - - - - - - - - -
30/06:30am 26.7 WNW 5 7 1012.3 - - - - - - - - -
30/06:00am 26.7 WNW 5 7 1012.0 - - - - - - - - -
30/05:30am 26.8 WNW 5 7 1011.6 - - - - - - - - -
30/05:00am 26.7 NW 4 6 1011.6 - - - - - - - - -
30/04:30am 26.6 CALM 0 0 1011.6 - - - - - - - - -
30/04:00am 26.7 WSW 3 4 1011.6 - - - - - - - - -
30/03:30am 26.7 NNW 2 5 1011.5 - - - - - - - - -
30/03:00am 26.7 WNW 3 4 1011.5 - - - - - - - - -
30/02:30am 26.9 WSW 4 5 1011.8 - - - - - - - - -
30/02:00am 26.9 WSW 5 7 1012.2 - - - - - - - - -
30/01:30am 26.9 SW 4 5 1012.4 - - - - - - - - -
30/01:00am 26.9 SW 5 7 1012.5 - - - - - - - - -
30/12:30am 26.9 SW 5 7 1012.7 - - - - - - - - -
30/12:00am 27.0 SW 6 7 1012.8 - - - - - - - - -
 
Date/Time
WST
Temp

°C
Wind Pressure Rain
since 9am
mm
Weather Cloud Vis
km
Sea
Height
m
Swell
Dir
 
Speed
knots
Gust
knots
hPa Trend Height
m
Period
s
Dir
29/11:30pm 27.1 SW 5 6 1012.9 - - - - - - - - -
29/11:00pm 27.0 SW 5 7 1013.0 - - - - - - - - -
29/10:30pm 27.2 SSW 6 8 1013.2 - - - - - - - - -
29/10:00pm 27.2 S 5 7 1013.2 - - - - - - - - -
29/09:30pm 27.3 SSW 4 5 1013.3 - - - - - - - - -
29/09:00pm 27.4 SSW 4 6 1013.3 - - - - - - - - -
29/08:30pm 27.4 SSW 5 7 1013.0 - - - - - - - - -
29/08:00pm 27.4 SSW 6 8 1012.8 - - - - - - - - -
29/07:30pm 27.5 SSW 6 8 1012.5 - - - - - - - - -
29/07:00pm 27.6 SSW 5 7 1012.2 - - - - - - - - -
29/06:30pm 27.8 SW 5 7 1012.0 - - - - - - - - -
29/06:00pm 27.7 SW 5 6 1011.9 - - - - - - - - -
29/05:30pm 27.9 WSW 3 5 1011.6 - - - - - - - - -
29/05:00pm 28.0 WSW 4 6 1011.6 - - - - - - - - -
29/04:30pm 28.2 W 4 5 1011.3 - - - - - - - - -
29/04:00pm 28.1 WSW 3 6 1010.9 - - - - - - - - -
29/03:30pm 28.2 W 4 6 1010.9 - - - - - - - - -
29/03:00pm 28.2 WSW 4 6 1010.9 - - - - - - - - -
29/02:30pm 28.1 WNW 3 5 1011.0 - - - - - - - - -
29/02:00pm 28.1 W 3 5 1011.1 - - - - - - - - -
29/01:30pm 27.7 WNW 4 5 1011.1 - - - - - - - - -
29/01:00pm 27.9 WNW 4 6 1011.5 - - - - - - - - -
29/12:30pm 27.8 W 3 5 1012.2 - - - - - - - - -
29/12:00pm 27.5 W 3 5 1012.6 - - - - - - - - -
29/11:30am 27.9 WSW 3 5 1013.1 - - - - - - - - -
29/11:00am 27.8 WSW 4 6 1013.3 - - - - - - - - -
29/10:30am 27.6 SW 5 6 1013.7 - - - - - - - - -
29/10:00am 27.4 SW 5 7 1013.8 - - - - - - - - -
29/09:30am 27.6 WSW 6 7 1014.0 - - - - - - - - -
29/09:00am 27.5 WSW 6 8 1014.1 - - - - - - - - -
29/08:30am 27.3 SW 7 9 1014.1 - - - - - - - - -
29/08:00am 27.3 WSW 6 8 1013.7 - - - - - - - - -
29/07:30am 27.2 WSW 7 9 1013.4 - - - - - - - - -
29/07:00am 27.1 SW 7 9 1013.2 - - - - - - - - -
29/06:30am 27.2 SW 7 9 1013.0 - - - - - - - - -
29/06:00am 27.0 WSW 6 8 1012.7 - - - - - - - - -
29/05:30am 27.1 SW 7 9 1012.3 - - - - - - - - -
29/05:00am 27.2 SW 7 9 1012.1 - - - - - - - - -
29/04:30am 27.1 SW 7 8 1012.0 - - - - - - - - -
29/04:00am 27.0 SW 7 9 1012.0 - - - - - - - - -
29/03:30am 27.1 SW 6 9 1012.0 - - - - - - - - -
29/03:00am 27.0 SW 6 8 1012.0 - - - - - - - - -
29/02:30am 27.0 SSW 4 5 1012.0 - - - - - - - - -
29/02:00am 27.1 SSW 4 5 1012.1 - - - - - - - - -
29/01:30am 27.0 S 4 4 1012.1 - - - - - - - - -
29/01:00am 27.0 S 3 4 1012.0 - - - - - - - - -
29/12:30am 27.1 S 4 5 1012.6 - - - - - - - - -

Other Formats:

Comma delimited format used in spreadsheet applications
http://www.bom.gov.au/fwo/IDW60701/IDW60701.94207.axf

JavaScript Object Notation format (JSON) in row-major order
http://www.bom.gov.au/fwo/IDW60701/IDW60701.94207.json